sensor_id;sensor_type;location;lat;lon;timestamp;pressure;altitude;pressure_sealevel;temperature;humidity
83246;BME280;73140;46.754;17.714;2024-02-26T00:00:28;98578.28;;;9.58;84.99
83246;BME280;73140;46.754;17.714;2024-02-26T00:02:55;98608.25;;;9.39;86.63
83246;BME280;73140;46.754;17.714;2024-02-26T00:05:21;98610.88;;;9.22;87.95
83246;BME280;73140;46.754;17.714;2024-02-26T00:07:47;98613.56;;;9.21;88.72
83246;BME280;73140;46.754;17.714;2024-02-26T00:10:13;98598.59;;;8.92;88.68
83246;BME280;73140;46.754;17.714;2024-02-26T00:12:39;98670.69;;;9.16;89.50
83246;BME280;73140;46.754;17.714;2024-02-26T00:15:08;98682.13;;;9.15;89.64
83246;BME280;73140;46.754;17.714;2024-02-26T00:17:34;98670.69;;;9.00;90.33
83246;BME280;73140;46.754;17.714;2024-02-26T00:20:00;98573.94;;;8.37;90.39
83246;BME280;73140;46.754;17.714;2024-02-26T00:22:26;98686.50;;;8.87;91.28
83246;BME280;73140;46.754;17.714;2024-02-26T00:24:52;98680.31;;;8.86;90.25
83246;BME280;73140;46.754;17.714;2024-02-26T00:27:18;98615.25;;;8.46;91.06
83246;BME280;73140;46.754;17.714;2024-02-26T00:29:44;98634.59;;;8.57;91.58
83246;BME280;73140;46.754;17.714;2024-02-26T00:32:12;98653.97;;;8.77;92.02
83246;BME280;73140;46.754;17.714;2024-02-26T00:34:38;98631.09;;;8.67;92.05
83246;BME280;73140;46.754;17.714;2024-02-26T00:37:04;98666.31;;;9.06;90.76
83246;BME280;73140;46.754;17.714;2024-02-26T00:39:30;98665.41;;;9.03;90.05
83246;BME280;73140;46.754;17.714;2024-02-26T00:41:56;98675.09;;;9.08;91.09
83246;BME280;73140;46.754;17.714;2024-02-26T00:44:22;98665.41;;;9.00;90.81
83246;BME280;73140;46.754;17.714;2024-02-26T00:46:48;98595.94;;;8.68;91.72
83246;BME280;73140;46.754;17.714;2024-02-26T00:49:16;98664.53;;;9.06;91.21
83246;BME280;73140;46.754;17.714;2024-02-26T00:51:42;98597.69;;;8.45;91.28
83246;BME280;73140;46.754;17.714;2024-02-26T00:54:08;98664.53;;;8.92;91.68
83246;BME280;73140;46.754;17.714;2024-02-26T00:56:34;98675.94;;;8.94;91.96
83246;BME280;73140;46.754;17.714;2024-02-26T00:59:00;98648.69;;;8.95;91.02
83246;BME280;73140;46.754;17.714;2024-02-26T01:01:26;98652.25;;;9.25;90.67
83246;BME280;73140;46.754;17.714;2024-02-26T01:03:51;98625.84;;;9.31;89.42
83246;BME280;73140;46.754;17.714;2024-02-26T01:06:19;98610.88;;;9.37;89.55
83246;BME280;73140;46.754;17.714;2024-02-26T01:08:45;98634.53;;;9.84;87.57
83246;BME280;73140;46.754;17.714;2024-02-26T01:11:11;98623.06;;;9.94;87.11
83246;BME280;73140;46.754;17.714;2024-02-26T01:13:37;98640.59;;;10.09;86.33
83246;BME280;73140;46.754;17.714;2024-02-26T01:16:04;98634.44;;;10.10;85.82
83246;BME280;73140;46.754;17.714;2024-02-26T01:18:30;98628.34;;;9.94;85.45
83246;BME280;73140;46.754;17.714;2024-02-26T01:20:56;98624.78;;;10.00;86.27
83246;BME280;73140;46.754;17.714;2024-02-26T01:23:23;98608.94;;;9.97;86.27
83246;BME280;73140;46.754;17.714;2024-02-26T01:25:49;98628.25;;;10.25;85.28
83246;BME280;73140;46.754;17.714;2024-02-26T01:28:16;98576.38;;;10.00;84.56
83246;BME280;73140;46.754;17.714;2024-02-26T01:30:42;98558.84;;;9.83;84.19
83246;BME280;73140;46.754;17.714;2024-02-26T01:33:08;98577.19;;;10.12;84.83
83246;BME280;73140;46.754;17.714;2024-02-26T01:35:34;98625.53;;;10.40;84.69
83246;BME280;73140;46.754;17.714;2024-02-26T01:37:59;98522.81;;;9.72;84.38
83246;BME280;73140;46.754;17.714;2024-02-26T01:40:28;98630.84;;;10.37;83.23
83246;BME280;73140;46.754;17.714;2024-02-26T01:42:54;98585.97;;;10.20;83.20
83246;BME280;73140;46.754;17.714;2024-02-26T01:45:20;98595.66;;;10.26;83.67
83246;BME280;73140;46.754;17.714;2024-02-26T01:47:51;98593.88;;;10.28;83.03
83246;BME280;73140;46.754;17.714;2024-02-26T01:50:17;98609.72;;;10.28;83.38
83246;BME280;73140;46.754;17.714;2024-02-26T01:52:44;98611.44;;;10.38;83.43
83246;BME280;73140;46.754;17.714;2024-02-26T01:55:10;98598.19;;;10.44;82.21
83246;BME280;73140;46.754;17.714;2024-02-26T01:57:38;98590.25;;;10.44;82.87
83246;BME280;73140;46.754;17.714;2024-02-26T02:00:05;98607.03;;;10.38;82.60
83246;BME280;73140;46.754;17.714;2024-02-26T02:02:34;98547.34;;;9.90;83.53
83246;BME280;73140;46.754;17.714;2024-02-26T02:05:00;98606.22;;;10.26;83.30
83246;BME280;73140;46.754;17.714;2024-02-26T02:07:27;98554.38;;;9.99;82.73
83246;BME280;73140;46.754;17.714;2024-02-26T02:09:54;98550.88;;;9.89;83.56
83246;BME280;73140;46.754;17.714;2024-02-26T02:12:21;98563.19;;;9.92;82.45
83246;BME280;73140;46.754;17.714;2024-02-26T02:14:49;98609.69;;;10.35;83.59
83246;BME280;73140;46.754;17.714;2024-02-26T02:17:15;98607.09;;;10.29;84.36
83246;BME280;73140;46.754;17.714;2024-02-26T02:19:41;98595.66;;;10.20;84.06
83246;BME280;73140;46.754;17.714;2024-02-26T02:22:08;98579.84;;;10.11;83.87
83246;BME280;73140;46.754;17.714;2024-02-26T02:24:34;98619.41;;;10.33;82.74
83246;BME280;73140;46.754;17.714;2024-02-26T02:27:00;98585.09;;;10.14;83.41
83246;BME280;73140;46.754;17.714;2024-02-26T02:29:26;98609.66;;;10.40;83.82
83246;BME280;73140;46.754;17.714;2024-02-26T02:31:53;98517.44;;;9.91;83.05
83246;BME280;73140;46.754;17.714;2024-02-26T02:34:20;98560.50;;;10.06;83.69
83246;BME280;73140;46.754;17.714;2024-02-26T02:36:51;98611.44;;;10.38;82.84
83246;BME280;73140;46.754;17.714;2024-02-26T02:39:19;98611.50;;;10.30;82.73
83246;BME280;73140;46.754;17.714;2024-02-26T02:41:46;98604.44;;;10.29;83.13
83246;BME280;73140;46.754;17.714;2024-02-26T02:44:12;98569.28;;;10.05;83.23
83246;BME280;73140;46.754;17.714;2024-02-26T02:46:38;98488.53;;;9.55;83.24
83246;BME280;73140;46.754;17.714;2024-02-26T02:49:08;98613.25;;;10.30;83.65
83246;BME280;73140;46.754;17.714;2024-02-26T02:51:34;98612.38;;;10.25;82.64
83246;BME280;73140;46.754;17.714;2024-02-26T02:54:00;98556.09;;;10.03;82.74
83246;BME280;73140;46.754;17.714;2024-02-26T02:56:28;98527.09;;;9.88;83.27
83246;BME280;73140;46.754;17.714;2024-02-26T02:58:54;98578.94;;;10.12;83.29
83246;BME280;73140;46.754;17.714;2024-02-26T03:01:20;98614.13;;;10.30;82.54
83246;BME280;73140;46.754;17.714;2024-02-26T03:03:46;98583.34;;;10.22;83.06
83246;BME280;73140;46.754;17.714;2024-02-26T03:06:12;98599.06;;;10.46;81.63
83246;BME280;73140;46.754;17.714;2024-02-26T03:08:38;98561.31;;;10.12;83.01
83246;BME280;73140;46.754;17.714;2024-02-26T03:11:05;98563.97;;;10.20;82.83
83246;BME280;73140;46.754;17.714;2024-02-26T03:13:33;98605.34;;;10.27;81.95
83246;BME280;73140;46.754;17.714;2024-02-26T03:16:04;98583.34;;;10.22;82.18
83246;BME280;73140;46.754;17.714;2024-02-26T03:18:30;98537.56;;;10.08;81.36
83246;BME280;73140;46.754;17.714;2024-02-26T03:20:56;98472.66;;;9.64;81.67
83246;BME280;73140;46.754;17.714;2024-02-26T03:23:22;98524.50;;;9.86;81.98
83246;BME280;73140;46.754;17.714;2024-02-26T03:25:48;98567.44;;;10.31;82.91
83246;BME280;73140;46.754;17.714;2024-02-26T03:28:14;98584.97;;;10.44;82.27
83246;BME280;73140;46.754;17.714;2024-02-26T03:30:41;98565.66;;;10.33;81.75
83246;BME280;73140;46.754;17.714;2024-02-26T03:33:07;98580.53;;;10.51;81.26
83246;BME280;73140;46.754;17.714;2024-02-26T03:35:33;98581.50;;;10.36;81.26
83246;BME280;73140;46.754;17.714;2024-02-26T03:37:59;98547.16;;;10.31;80.22
83246;BME280;73140;46.754;17.714;2024-02-26T03:40:25;98494.50;;;9.98;80.46
83246;BME280;73140;46.754;17.714;2024-02-26T03:42:51;98578.78;;;10.43;80.31
83246;BME280;73140;46.754;17.714;2024-02-26T03:45:19;98585.09;;;10.23;81.87
83246;BME280;73140;46.754;17.714;2024-02-26T03:47:47;98601.00;;;10.00;83.81
83246;BME280;73140;46.754;17.714;2024-02-26T03:50:13;98591.47;;;9.64;86.02
83246;BME280;73140;46.754;17.714;2024-02-26T03:52:39;98573.06;;;9.37;87.60
83246;BME280;73140;46.754;17.714;2024-02-26T03:55:05;98472.94;;;8.52;87.63
83246;BME280;73140;46.754;17.714;2024-02-26T03:57:31;98481.72;;;8.33;88.01
83246;BME280;73140;46.754;17.714;2024-02-26T03:59:57;98601.22;;;8.73;89.26
83246;BME280;73140;46.754;17.714;2024-02-26T04:02:23;98566.06;;;8.45;89.75
83246;BME280;73140;46.754;17.714;2024-02-26T04:04:50;98571.31;;;8.36;89.55
83246;BME280;73140;46.754;17.714;2024-02-26T04:07:16;98581.88;;;8.42;90.31
83246;BME280;73140;46.754;17.714;2024-02-26T04:09:42;98576.59;;;8.42;90.40
83246;BME280;73140;46.754;17.714;2024-02-26T04:12:09;98566.06;;;8.45;90.08
83246;BME280;73140;46.754;17.714;2024-02-26T04:14:35;98573.13;;;8.85;89.17
83246;BME280;73140;46.754;17.714;2024-02-26T04:17:01;98553.78;;;8.88;87.61
83246;BME280;73140;46.754;17.714;2024-02-26T04:19:27;98531.81;;;8.93;87.23
83246;BME280;73140;46.754;17.714;2024-02-26T04:21:55;98470.28;;;8.79;86.64
83246;BME280;73140;46.754;17.714;2024-02-26T04:24:21;98566.00;;;9.51;85.92
83246;BME280;73140;46.754;17.714;2024-02-26T04:26:47;98568.59;;;9.57;85.52
83246;BME280;73140;46.754;17.714;2024-02-26T04:29:15;98577.38;;;9.61;85.28
83246;BME280;73140;46.754;17.714;2024-02-26T04:31:41;98545.75;;;9.47;84.77
83246;BME280;73140;46.754;17.714;2024-02-26T04:34:08;98586.16;;;9.73;85.14
83246;BME280;73140;46.754;17.714;2024-02-26T04:36:34;98564.22;;;9.59;84.64
83246;BME280;73140;46.754;17.714;2024-02-26T04:39:02;98525.56;;;9.32;85.27
83246;BME280;73140;46.754;17.714;2024-02-26T04:41:28;98522.94;;;9.37;84.55
83246;BME280;73140;46.754;17.714;2024-02-26T04:43:54;98544.84;;;9.60;84.80
83246;BME280;73140;46.754;17.714;2024-02-26T04:46:20;98559.84;;;9.52;84.53
83246;BME280;73140;46.754;17.714;2024-02-26T04:48:47;98554.59;;;9.35;85.68
83246;BME280;73140;46.754;17.714;2024-02-26T04:51:13;98518.59;;;9.09;84.93
83246;BME280;73140;46.754;17.714;2024-02-26T04:53:39;98511.56;;;8.95;85.94
83246;BME280;73140;46.754;17.714;2024-02-26T04:56:07;98550.28;;;8.93;86.57
83246;BME280;73140;46.754;17.714;2024-02-26T04:58:33;98515.09;;;8.55;86.80
83246;BME280;73140;46.754;17.714;2024-02-26T05:00:59;98577.50;;;8.68;87.46
83246;BME280;73140;46.754;17.714;2024-02-26T05:03:25;98507.13;;;8.08;88.97
83246;BME280;73140;46.754;17.714;2024-02-26T05:05:51;98511.50;;;8.04;89.24
83246;BME280;73140;46.754;17.714;2024-02-26T05:08:17;98610.84;;;8.45;89.38
83246;BME280;73140;46.754;17.714;2024-02-26T05:10:45;98550.16;;;8.13;90.79
83246;BME280;73140;46.754;17.714;2024-02-26T05:13:12;98589.69;;;8.28;90.53
83246;BME280;73140;46.754;17.714;2024-02-26T05:15:41;98572.13;;;8.24;90.92
83246;BME280;73140;46.754;17.714;2024-02-26T05:18:07;98521.13;;;7.83;91.11
83246;BME280;73140;46.754;17.714;2024-02-26T05:20:33;98586.16;;;8.20;91.04
83246;BME280;73140;46.754;17.714;2024-02-26T05:23:01;98582.56;;;8.00;91.62
83246;BME280;73140;46.754;17.714;2024-02-26T05:25:27;98535.13;;;7.74;92.00
83246;BME280;73140;46.754;17.714;2024-02-26T05:27:53;98592.31;;;8.24;91.32
83246;BME280;73140;46.754;17.714;2024-02-26T05:30:21;98529.00;;;7.78;90.46
83246;BME280;73140;46.754;17.714;2024-02-26T05:32:47;98512.25;;;7.58;90.88
83246;BME280;73140;46.754;17.714;2024-02-26T05:35:13;98588.72;;;7.94;91.59
83246;BME280;73140;46.754;17.714;2024-02-26T05:37:39;98595.81;;;8.14;92.50
83246;BME280;73140;46.754;17.714;2024-02-26T05:40:06;98553.59;;;7.92;92.16
83246;BME280;73140;46.754;17.714;2024-02-26T05:42:32;98526.38;;;7.86;92.38
83246;BME280;73140;46.754;17.714;2024-02-26T05:44:59;98516.72;;;7.83;90.87
83246;BME280;73140;46.754;17.714;2024-02-26T05:47:26;98526.34;;;7.78;89.92
83246;BME280;73140;46.754;17.714;2024-02-26T05:49:52;98594.91;;;8.13;89.99
83246;BME280;73140;46.754;17.714;2024-02-26T05:52:18;98527.19;;;7.70;91.75
83246;BME280;73140;46.754;17.714;2024-02-26T05:54:44;98583.44;;;7.96;92.05
83246;BME280;73140;46.754;17.714;2024-02-26T05:57:10;98595.75;;;8.00;91.24
83246;BME280;73140;46.754;17.714;2024-02-26T05:59:37;98606.28;;;7.98;92.17
83246;BME280;73140;46.754;17.714;2024-02-26T06:02:03;98523.56;;;7.36;90.84
83246;BME280;73140;46.754;17.714;2024-02-26T06:04:30;98556.09;;;7.57;92.75
83246;BME280;73140;46.754;17.714;2024-02-26T06:06:56;98577.19;;;7.67;92.54
83246;BME280;73140;46.754;17.714;2024-02-26T06:09:22;98593.00;;;7.70;92.31
83246;BME280;73140;46.754;17.714;2024-02-26T06:11:48;98491.84;;;7.08;91.99
83246;BME280;73140;46.754;17.714;2024-02-26T06:14:14;98622.03;;;7.83;93.05
83246;BME280;73140;46.754;17.714;2024-02-26T06:16:43;98607.03;;;7.67;92.81
83246;BME280;73140;46.754;17.714;2024-02-26T06:19:09;98607.88;;;7.60;93.65
83246;BME280;73140;46.754;17.714;2024-02-26T06:21:37;98613.16;;;7.63;94.14
83246;BME280;73140;46.754;17.714;2024-02-26T06:24:03;98643.09;;;7.83;93.66
83246;BME280;73140;46.754;17.714;2024-02-26T06:26:29;98620.25;;;7.79;95.14
83246;BME280;73140;46.754;17.714;2024-02-26T06:28:55;98623.84;;;7.99;94.56
83246;BME280;73140;46.754;17.714;2024-02-26T06:31:21;98646.72;;;8.13;94.80
83246;BME280;73140;46.754;17.714;2024-02-26T06:33:48;98598.31;;;7.85;94.47
83246;BME280;73140;46.754;17.714;2024-02-26T06:36:15;98626.59;;;8.27;93.74
83246;BME280;73140;46.754;17.714;2024-02-26T06:38:43;98641.59;;;8.49;94.08
83246;BME280;73140;46.754;17.714;2024-02-26T06:41:09;98632.84;;;8.65;93.53
83246;BME280;73140;46.754;17.714;2024-02-26T06:43:35;98532.63;;;8.26;93.13
83246;BME280;73140;46.754;17.714;2024-02-26T06:46:01;98597.72;;;8.75;93.37
83246;BME280;73140;46.754;17.714;2024-02-26T06:48:27;98602.09;;;9.19;89.69
83246;BME280;73140;46.754;17.714;2024-02-26T06:50:53;98635.47;;;9.67;88.47
83246;BME280;73140;46.754;17.714;2024-02-26T06:53:19;98558.97;;;9.33;87.78
83246;BME280;73140;46.754;17.714;2024-02-26T06:55:46;98635.34;;;10.11;86.89
83246;BME280;73140;46.754;17.714;2024-02-26T06:58:13;98633.53;;;10.23;85.36
83246;BME280;73140;46.754;17.714;2024-02-26T07:00:40;98608.75;;;10.44;84.24
83246;BME280;73140;46.754;17.714;2024-02-26T07:03:06;98616.50;;;10.71;83.11
83246;BME280;73140;46.754;17.714;2024-02-26T07:05:32;98635.75;;;10.98;81.45
83246;BME280;73140;46.754;17.714;2024-02-26T07:07:58;98650.56;;;11.18;81.09
83246;BME280;73140;46.754;17.714;2024-02-26T07:10:24;98617.19;;;11.01;80.45
83246;BME280;73140;46.754;17.714;2024-02-26T07:12:51;98654.78;;;11.42;78.91
83246;BME280;73140;46.754;17.714;2024-02-26T07:15:17;98651.25;;;11.45;80.06
83246;BME280;73140;46.754;17.714;2024-02-26T07:17:44;98647.75;;;11.39;79.36
83246;BME280;73140;46.754;17.714;2024-02-26T07:20:13;98632.63;;;11.52;79.85
83246;BME280;73140;46.754;17.714;2024-02-26T07:22:40;98625.63;;;11.47;80.31
83246;BME280;73140;46.754;17.714;2024-02-26T07:25:08;98649.38;;;11.54;80.31
83246;BME280;73140;46.754;17.714;2024-02-26T07:27:37;98660.69;;;11.70;79.62
83246;BME280;73140;46.754;17.714;2024-02-26T07:30:06;98649.41;;;11.51;79.46
83246;BME280;73140;46.754;17.714;2024-02-26T07:32:33;98642.41;;;11.44;78.75
83246;BME280;73140;46.754;17.714;2024-02-26T07:34:59;98669.69;;;11.55;81.10
83246;BME280;73140;46.754;17.714;2024-02-26T07:37:25;98608.81;;;11.49;81.13
83246;BME280;73140;46.754;17.714;2024-02-26T07:39:51;98647.16;;;12.02;78.34
83246;BME280;73140;46.754;17.714;2024-02-26T07:42:17;98586.59;;;11.62;77.61
83246;BME280;73140;46.754;17.714;2024-02-26T07:44:43;98656.94;;;11.95;77.61
83246;BME280;73140;46.754;17.714;2024-02-26T07:47:11;98561.13;;;11.52;78.79
83246;BME280;73140;46.754;17.714;2024-02-26T07:49:37;98665.41;;;12.26;78.08
83246;BME280;73140;46.754;17.714;2024-02-26T07:52:03;98644.16;;;12.27;78.15
83246;BME280;73140;46.754;17.714;2024-02-26T07:54:29;98659.03;;;12.42;77.44
83246;BME280;73140;46.754;17.714;2024-02-26T07:56:55;98653.06;;;12.25;76.86
83246;BME280;73140;46.754;17.714;2024-02-26T07:59:21;98576.41;;;12.07;77.92
83246;BME280;73140;46.754;17.714;2024-02-26T08:01:49;98649.38;;;12.35;76.56
83246;BME280;73140;46.754;17.714;2024-02-26T08:04:17;98667.72;;;12.52;78.41
83246;BME280;73140;46.754;17.714;2024-02-26T08:06:43;98674.75;;;12.56;76.08
83246;BME280;73140;46.754;17.714;2024-02-26T08:09:09;98590.34;;;12.19;76.09
83246;BME280;73140;46.754;17.714;2024-02-26T08:11:35;98649.97;;;12.58;75.81
83246;BME280;73140;46.754;17.714;2024-02-26T08:14:01;98651.13;;;12.38;75.05
83246;BME280;73140;46.754;17.714;2024-02-26T08:16:29;98631.59;;;12.43;77.61
83246;BME280;73140;46.754;17.714;2024-02-26T08:18:55;98661.34;;;12.66;75.72
83246;BME280;73140;46.754;17.714;2024-02-26T08:21:22;98648.28;;;12.51;74.96
83246;BME280;73140;46.754;17.714;2024-02-26T08:23:48;98676.47;;;12.61;76.22
83246;BME280;73140;46.754;17.714;2024-02-26T08:26:14;98677.25;;;12.66;75.21
83246;BME280;73140;46.754;17.714;2024-02-26T08:28:40;98658.63;;;12.72;74.18
83246;BME280;73140;46.754;17.714;2024-02-26T08:31:06;98663.81;;;12.80;75.69
83246;BME280;73140;46.754;17.714;2024-02-26T08:33:33;98666.19;;;12.98;75.46
83246;BME280;73140;46.754;17.714;2024-02-26T08:36:04;98671.38;;;13.06;73.82
83246;BME280;73140;46.754;17.714;2024-02-26T08:38:31;98601.84;;;12.82;74.56
83246;BME280;73140;46.754;17.714;2024-02-26T08:40:57;98663.25;;;13.18;73.73
83246;BME280;73140;46.754;17.714;2024-02-26T08:43:23;98661.44;;;13.21;72.79
83246;BME280;73140;46.754;17.714;2024-02-26T08:45:49;98657.69;;;13.33;71.35
83246;BME280;73140;46.754;17.714;2024-02-26T08:48:15;98594.34;;;13.10;71.90
83246;BME280;73140;46.754;17.714;2024-02-26T08:50:41;98669.94;;;13.43;70.03
83246;BME280;73140;46.754;17.714;2024-02-26T08:53:07;98637.13;;;13.46;71.73
83246;BME280;73140;46.754;17.714;2024-02-26T08:55:35;98660.88;;;13.56;71.17
83246;BME280;73140;46.754;17.714;2024-02-26T08:58:01;98660.13;;;13.47;66.49
83246;BME280;73140;46.754;17.714;2024-02-26T09:00:27;98614.84;;;13.53;67.50
83246;BME280;73140;46.754;17.714;2024-02-26T09:02:52;98673.41;;;13.97;66.46
83246;BME280;73140;46.754;17.714;2024-02-26T09:05:18;98665.41;;;13.99;63.13
83246;BME280;73140;46.754;17.714;2024-02-26T09:07:44;98658.78;;;13.73;62.61
83246;BME280;73140;46.754;17.714;2024-02-26T09:10:12;98658.78;;;13.73;65.48
83246;BME280;73140;46.754;17.714;2024-02-26T09:12:40;98601.63;;;13.51;64.04
83246;BME280;73140;46.754;17.714;2024-02-26T09:15:06;98606.16;;;13.45;63.22
83246;BME280;73140;46.754;17.714;2024-02-26T09:17:33;98598.66;;;13.17;61.88
83246;BME280;73140;46.754;17.714;2024-02-26T09:19:59;98602.78;;;13.35;63.82
83246;BME280;73140;46.754;17.714;2024-02-26T09:22:25;98671.63;;;13.99;65.82
83246;BME280;73140;46.754;17.714;2024-02-26T09:24:51;98652.50;;;14.23;64.21
83246;BME280;73140;46.754;17.714;2024-02-26T09:27:19;98593.63;;;13.99;61.93
83246;BME280;73140;46.754;17.714;2024-02-26T09:29:46;98602.03;;;14.20;59.59
83246;BME280;73140;46.754;17.714;2024-02-26T09:32:13;98612.88;;;14.53;59.94
83246;BME280;73140;46.754;17.714;2024-02-26T09:34:40;98657.78;;;15.08;62.43
83246;BME280;73140;46.754;17.714;2024-02-26T09:37:06;98672.69;;;15.17;57.15
83246;BME280;73140;46.754;17.714;2024-02-26T09:39:32;98648.81;;;15.12;57.60
83246;BME280;73140;46.754;17.714;2024-02-26T09:41:58;98635.53;;;14.31;57.85
83246;BME280;73140;46.754;17.714;2024-02-26T09:44:26;98624.25;;;14.18;61.19
83246;BME280;73140;46.754;17.714;2024-02-26T09:46:58;98638.53;;;14.57;59.72
83246;BME280;73140;46.754;17.714;2024-02-26T09:49:24;98683.34;;;15.15;57.95
83246;BME280;73140;46.754;17.714;2024-02-26T09:51:51;98667.91;;;14.52;59.83
83246;BME280;73140;46.754;17.714;2024-02-26T09:54:20;98665.78;;;14.70;60.82
83246;BME280;73140;46.754;17.714;2024-02-26T09:56:48;98599.56;;;14.54;60.74
83246;BME280;73140;46.754;17.714;2024-02-26T09:59:17;98678.50;;;14.95;59.31
83246;BME280;73140;46.754;17.714;2024-02-26T10:01:44;98679.41;;;14.94;60.33
83246;BME280;73140;46.754;17.714;2024-02-26T10:04:13;98668.84;;;14.90;61.35
83246;BME280;73140;46.754;17.714;2024-02-26T10:06:41;98689.53;;;15.17;57.11
83246;BME280;73140;46.754;17.714;2024-02-26T10:09:10;98669.09;;;15.18;59.33
83246;BME280;73140;46.754;17.714;2024-02-26T10:11:37;98611.72;;;15.03;57.31
83246;BME280;73140;46.754;17.714;2024-02-26T10:14:04;98548.69;;;14.66;60.19
83246;BME280;73140;46.754;17.714;2024-02-26T10:16:30;98665.81;;;15.43;58.86
83246;BME280;73140;46.754;17.714;2024-02-26T10:18:56;98604.91;;;15.28;59.30
83246;BME280;73140;46.754;17.714;2024-02-26T10:21:24;98609.72;;;15.48;57.47
83246;BME280;73140;46.754;17.714;2024-02-26T10:23:50;98657.66;;;15.85;56.79
83246;BME280;73140;46.754;17.714;2024-02-26T10:26:20;98655.97;;;15.81;57.33
83246;BME280;73140;46.754;17.714;2024-02-26T10:28:46;98655.28;;;15.74;55.81
83246;BME280;73140;46.754;17.714;2024-02-26T10:31:14;98656.16;;;15.75;55.01
83246;BME280;73140;46.754;17.714;2024-02-26T10:33:41;98593.56;;;15.20;53.45
83246;BME280;73140;46.754;17.714;2024-02-26T10:36:07;98616.28;;;15.33;55.30
83246;BME280;73140;46.754;17.714;2024-02-26T10:38:36;98621.31;;;15.45;53.87
83246;BME280;73140;46.754;17.714;2024-02-26T10:41:02;98533.59;;;15.02;54.21
83246;BME280;73140;46.754;17.714;2024-02-26T10:43:29;98632.25;;;15.70;54.64
83246;BME280;73140;46.754;17.714;2024-02-26T10:45:55;98648.97;;;15.77;52.92
83246;BME280;73140;46.754;17.714;2024-02-26T10:48:22;98636.50;;;16.11;54.62
83246;BME280;73140;46.754;17.714;2024-02-26T10:50:48;98644.31;;;16.17;53.70
83246;BME280;73140;46.754;17.714;2024-02-26T10:53:19;98545.97;;;15.73;51.95
83246;BME280;73140;46.754;17.714;2024-02-26T10:55:49;98625.63;;;16.17;51.48
83246;BME280;73140;46.754;17.714;2024-02-26T10:58:16;98652.00;;;16.28;51.11
83246;BME280;73140;46.754;17.714;2024-02-26T11:00:43;98652.66;;;16.05;51.66
83246;BME280;73140;46.754;17.714;2024-02-26T11:03:10;98568.84;;;15.81;52.40
83246;BME280;73140;46.754;17.714;2024-02-26T11:05:37;98626.28;;;16.25;52.43
83246;BME280;73140;46.754;17.714;2024-02-26T11:08:08;98567.69;;;15.91;52.09
83246;BME280;73140;46.754;17.714;2024-02-26T11:10:36;98620.25;;;16.49;49.09
83246;BME280;73140;46.754;17.714;2024-02-26T11:13:05;98630.78;;;16.23;51.11
83246;BME280;73140;46.754;17.714;2024-02-26T11:15:32;98591.59;;;16.25;52.80
83246;BME280;73140;46.754;17.714;2024-02-26T11:17:59;98599.50;;;16.28;48.54
83246;BME280;73140;46.754;17.714;2024-02-26T11:20:28;98523.19;;;15.92;48.87
83246;BME280;73140;46.754;17.714;2024-02-26T11:22:55;98613.41;;;16.39;48.32
83246;BME280;73140;46.754;17.714;2024-02-26T11:25:24;98607.19;;;16.39;48.32
83246;BME280;73140;46.754;17.714;2024-02-26T11:27:52;98600.56;;;16.52;49.09
83246;BME280;73140;46.754;17.714;2024-02-26T11:30:22;98585.91;;;16.67;47.07
83246;BME280;73140;46.754;17.714;2024-02-26T11:32:49;98575.22;;;16.67;47.24
83246;BME280;73140;46.754;17.714;2024-02-26T11:35:18;98598.78;;;16.52;47.00
83246;BME280;73140;46.754;17.714;2024-02-26T11:37:52;98604.38;;;16.43;48.35
83246;BME280;73140;46.754;17.714;2024-02-26T11:40:18;98599.59;;;16.54;47.60
83246;BME280;73140;46.754;17.714;2024-02-26T11:42:45;98596.53;;;16.70;46.99
83246;BME280;73140;46.754;17.714;2024-02-26T11:45:47;98589.59;;;16.63;46.13
83246;BME280;73140;46.754;17.714;2024-02-26T11:48:14;98554.94;;;16.01;45.00
83246;BME280;73140;46.754;17.714;2024-02-26T11:50:42;98551.19;;;16.08;46.08
83246;BME280;73140;46.754;17.714;2024-02-26T11:53:21;98565.72;;;16.27;47.73
83246;BME280;73140;46.754;17.714;2024-02-26T11:56:21;98573.84;;;16.53;43.93
83246;BME280;73140;46.754;17.714;2024-02-26T11:58:56;98586.00;;;16.64;44.06
83246;BME280;73140;46.754;17.714;2024-02-26T12:01:43;98590.31;;;16.97;44.07
83246;BME280;73140;46.754;17.714;2024-02-26T12:04:15;98554.34;;;16.79;43.83
83246;BME280;73140;46.754;17.714;2024-02-26T12:06:50;98558.63;;;16.85;43.64
83246;BME280;73140;46.754;17.714;2024-02-26T12:09:38;98591.72;;;16.81;45.34
83246;BME280;73140;46.754;17.714;2024-02-26T12:12:05;98590.47;;;16.63;44.23
83246;BME280;73140;46.754;17.714;2024-02-26T12:14:37;98595.84;;;16.91;44.59
83246;BME280;73140;46.754;17.714;2024-02-26T12:17:06;98570.25;;;16.84;43.55
83246;BME280;73140;46.754;17.714;2024-02-26T12:19:34;98550.38;;;16.65;45.21
83246;BME280;73140;46.754;17.714;2024-02-26T12:22:00;98478.00;;;16.17;47.31
83246;BME280;73140;46.754;17.714;2024-02-26T12:24:26;98531.09;;;16.83;45.83
83246;BME280;73140;46.754;17.714;2024-02-26T12:26:52;98583.56;;;17.13;44.76
83246;BME280;73140;46.754;17.714;2024-02-26T12:29:18;98554.34;;;17.07;45.31
83246;BME280;73140;46.754;17.714;2024-02-26T12:31:45;98516.31;;;16.99;44.41
83246;BME280;73140;46.754;17.714;2024-02-26T12:34:13;98549.94;;;17.32;43.39
83246;BME280;73140;46.754;17.714;2024-02-26T12:36:39;98563.38;;;17.56;43.48
83246;BME280;73140;46.754;17.714;2024-02-26T12:39:06;98457.13;;;16.85;46.44
83246;BME280;73140;46.754;17.714;2024-02-26T12:41:33;98564.16;;;17.84;46.95
83246;BME280;73140;46.754;17.714;2024-02-26T12:43:59;98555.75;;;17.70;46.42
83246;BME280;73140;46.754;17.714;2024-02-26T12:46:25;98500.31;;;17.48;44.37
83246;BME280;73140;46.754;17.714;2024-02-26T12:48:51;98566.97;;;18.04;45.56
83246;BME280;73140;46.754;17.714;2024-02-26T12:51:19;98557.69;;;17.91;45.43